Grants, Grants-Milan Municipal Airport (KGNT)

NameGrants-Milan Municipal Airport
CityGrants
CountryUnited States
ICAOKGNT
IATAGNT
Altitude1992 m
CoordinatesGoogle Map
Live Air TrafficLiveATC.net
METARKGNT 141655Z AUTO 31004KT 10SM CLR M04/M12 A3047 RMK AO2 T10361123
2018-12-14 16:55:00 Wind: West-Northwest (310°) 2.06 m/s - Visibility: 16093.4 m - Temperature: -4 °C - Dew point: -12 °C - Humidity: 54.2% - Pressure: 1031.83 hPa
Statistics

The table below shows the detailed information of all flights to/from Grants, Grants-Milan Municipal Airport (KGNT).